createdAt,value
2017-12-26T00:00:46.234Z,999.60
2017-12-26T00:02:39.231Z,999.56
2017-12-26T00:03:39.266Z,999.61
2017-12-26T00:05:32.273Z,999.61
2017-12-26T00:06:32.303Z,999.56
2017-12-26T00:08:25.275Z,999.51
2017-12-26T00:09:25.335Z,999.52
2017-12-26T00:11:18.427Z,999.46
2017-12-26T00:12:18.363Z,999.41
2017-12-26T00:14:11.436Z,999.40
2017-12-26T00:15:11.398Z,999.36
2017-12-26T00:17:04.391Z,999.29
2017-12-26T00:18:04.427Z,999.20
2017-12-26T00:19:57.410Z,999.20
2017-12-26T00:20:57.460Z,999.21
2017-12-26T00:22:50.470Z,999.13
2017-12-26T00:23:50.491Z,999.14
2017-12-26T00:25:43.584Z,999.13
2017-12-26T00:26:43.524Z,999.10
2017-12-26T00:28:36.521Z,999.01
2017-12-26T00:29:36.557Z,998.99
2017-12-26T00:31:29.557Z,998.97
2017-12-26T00:32:29.593Z,998.89
2017-12-26T00:34:22.674Z,998.85
2017-12-26T00:35:22.626Z,998.83
2017-12-26T00:37:15.775Z,998.81
2017-12-26T00:38:15.662Z,998.81
2017-12-26T00:40:08.669Z,998.76
2017-12-26T00:41:08.721Z,998.70
2017-12-26T00:43:01.689Z,998.69
2017-12-26T00:44:01.723Z,998.67
2017-12-26T00:45:54.721Z,998.63
2017-12-26T00:46:54.756Z,998.57
2017-12-26T00:48:47.736Z,998.51
2017-12-26T00:49:47.797Z,998.49
2017-12-26T00:51:40.911Z,998.40
2017-12-26T00:52:40.828Z,998.38
2017-12-26T00:54:33.802Z,998.41
2017-12-26T00:55:33.858Z,998.35
2017-12-26T00:57:26.856Z,998.37
2017-12-26T00:58:26.891Z,998.35
2017-12-26T01:00:19.875Z,998.29
2017-12-26T01:01:19.940Z,998.34
2017-12-26T01:03:13.035Z,998.30
2017-12-26T01:04:12.955Z,998.25
2017-12-26T01:06:05.958Z,998.19
2017-12-26T01:07:06.004Z,998.19
2017-12-26T01:08:58.976Z,998.06
2017-12-26T01:09:59.041Z,998.09
2017-12-26T01:11:52.023Z,998.03
2017-12-26T01:12:52.060Z,997.96
2017-12-26T01:14:45.102Z,997.90
2017-12-26T01:15:45.091Z,997.93
2017-12-26T01:17:38.094Z,997.95
2017-12-26T01:18:38.131Z,997.94
2017-12-26T01:20:31.104Z,997.89
2017-12-26T01:21:31.162Z,997.88
2017-12-26T01:23:24.265Z,997.87
2017-12-26T01:24:24.197Z,997.90
2017-12-26T01:26:17.189Z,997.94
2017-12-26T01:27:17.224Z,997.89
2017-12-26T01:29:10.200Z,997.80
2017-12-26T01:30:10.257Z,997.80
2017-12-26T01:32:03.251Z,997.77
2017-12-26T01:33:03.286Z,997.82
2017-12-26T01:34:56.262Z,997.72
2017-12-26T01:35:56.318Z,997.67
2017-12-26T01:37:49.412Z,997.67
2017-12-26T01:38:49.350Z,997.71
2017-12-26T01:40:42.406Z,997.54
2017-12-26T01:41:42.381Z,997.48
2017-12-26T01:43:35.486Z,997.53
2017-12-26T01:44:35.411Z,997.49
2017-12-26T01:46:28.408Z,997.48
2017-12-26T01:47:28.445Z,997.44
2017-12-26T01:49:21.425Z,997.43
2017-12-26T01:50:21.498Z,997.39
2017-12-26T01:52:14.512Z,997.31
2017-12-26T01:53:14.517Z,997.31
2017-12-26T01:55:07.500Z,997.24
2017-12-26T01:56:07.549Z,997.18
2017-12-26T01:58:00.631Z,997.15
2017-12-26T01:59:00.587Z,997.14
2017-12-26T02:00:53.710Z,997.08
2017-12-26T02:01:53.612Z,997.04
2017-12-26T02:03:46.611Z,996.94
2017-12-26T02:04:46.647Z,997.03
2017-12-26T02:06:39.650Z,997.02
2017-12-26T02:07:39.687Z,996.90
2017-12-26T02:09:32.808Z,996.89
2017-12-26T02:10:32.719Z,996.86
2017-12-26T02:12:25.867Z,996.78
2017-12-26T02:13:25.750Z,996.70
2017-12-26T02:15:18.817Z,996.73
2017-12-26T02:16:18.825Z,996.70
2017-12-26T02:18:11.908Z,996.64
2017-12-26T02:19:11.819Z,996.58
2017-12-26T02:21:04.802Z,996.55
2017-12-26T02:22:04.858Z,996.53
2017-12-26T02:23:58.474Z,996.53
2017-12-26T02:24:58.397Z,996.48
2017-12-26T02:26:51.461Z,996.41
2017-12-26T02:27:51.427Z,996.42
2017-12-26T02:29:44.569Z,996.40
2017-12-26T02:30:44.458Z,996.34
2017-12-26T02:32:37.454Z,996.28
2017-12-26T02:33:37.489Z,996.29
2017-12-26T02:35:30.464Z,996.19
2017-12-26T02:36:30.518Z,996.19
2017-12-26T02:38:23.612Z,996.11
2017-12-26T02:39:23.549Z,996.04
2017-12-26T02:41:16.526Z,996.02
2017-12-26T02:42:16.583Z,995.97
2017-12-26T02:44:12.620Z,995.95
2017-12-26T02:45:09.612Z,995.87
2017-12-26T02:47:02.710Z,995.81
2017-12-26T02:48:02.642Z,995.77
2017-12-26T02:49:55.616Z,995.70
2017-12-26T02:50:55.671Z,995.69
2017-12-26T02:52:48.746Z,995.63
2017-12-26T02:53:48.705Z,995.59
2017-12-26T02:55:41.687Z,995.54
2017-12-26T02:56:41.737Z,995.46
2017-12-26T02:58:34.851Z,995.44
2017-12-26T02:59:34.770Z,995.40
2017-12-26T03:01:27.745Z,995.34
2017-12-26T03:02:27.801Z,995.32
2017-12-26T03:04:20.808Z,995.30
2017-12-26T03:05:20.839Z,995.27
2017-12-26T03:07:13.842Z,995.23
2017-12-26T03:08:13.869Z,995.20
2017-12-26T03:10:06.845Z,995.15
2017-12-26T03:11:06.900Z,995.13
2017-12-26T03:12:59.896Z,995.08
2017-12-26T03:13:59.930Z,995.02
2017-12-26T03:15:53.050Z,994.97
2017-12-26T03:16:52.964Z,994.97
2017-12-26T03:18:46.060Z,994.88
2017-12-26T03:19:46.010Z,994.86
2017-12-26T03:21:38.988Z,994.87
2017-12-26T03:22:39.045Z,994.84
2017-12-26T03:24:32.551Z,994.78
2017-12-26T03:25:32.582Z,994.79
2017-12-26T03:27:25.878Z,994.73
2017-12-26T03:28:25.614Z,994.71
2017-12-26T03:30:18.590Z,994.69
2017-12-26T03:31:18.644Z,994.70
2017-12-26T03:33:11.764Z,994.59
2017-12-26T03:34:11.675Z,994.55
2017-12-26T03:36:04.784Z,994.50
2017-12-26T03:37:04.707Z,994.50
2017-12-26T03:38:57.740Z,994.43
2017-12-26T03:39:57.738Z,994.38
2017-12-26T03:41:50.791Z,994.35
2017-12-26T03:42:50.769Z,994.31
2017-12-26T03:44:43.764Z,994.30
2017-12-26T03:45:43.799Z,994.25
2017-12-26T03:47:36.917Z,994.18
2017-12-26T03:48:36.829Z,994.13
2017-12-26T03:50:29.805Z,994.08
2017-12-26T03:51:29.864Z,994.05
2017-12-26T03:53:22.945Z,994.00
2017-12-26T03:54:22.892Z,993.96
2017-12-26T03:56:15.868Z,993.84
2017-12-26T03:57:15.925Z,993.78
2017-12-26T03:59:09.044Z,993.73
2017-12-26T04:00:08.954Z,993.73
2017-12-26T04:02:02.013Z,993.66
2017-12-26T04:03:01.998Z,993.67
2017-12-26T04:04:54.980Z,993.64
2017-12-26T04:05:55.014Z,993.56
2017-12-26T04:07:48.139Z,993.50
2017-12-26T04:08:48.068Z,993.49
2017-12-26T04:10:41.086Z,993.44
2017-12-26T04:11:41.076Z,993.40
2017-12-26T04:13:34.081Z,993.33
2017-12-26T04:14:34.116Z,993.34
2017-12-26T04:16:27.183Z,993.30
2017-12-26T04:17:27.147Z,993.18
2017-12-26T04:19:20.146Z,993.12
2017-12-26T04:20:20.181Z,993.11
2017-12-26T04:22:13.160Z,993.05
2017-12-26T04:23:13.212Z,993.09
2017-12-26T04:25:06.210Z,993.08
2017-12-26T04:26:06.243Z,993.05
2017-12-26T04:27:59.244Z,993.00
2017-12-26T04:28:59.525Z,992.92
2017-12-26T04:30:52.404Z,992.96
2017-12-26T04:31:52.311Z,992.98
2017-12-26T04:33:45.445Z,992.95
2017-12-26T04:34:45.345Z,992.95
2017-12-26T04:36:38.587Z,992.97
2017-12-26T04:37:38.460Z,992.95
2017-12-26T04:39:31.459Z,992.89
2017-12-26T04:40:31.491Z,992.85
2017-12-26T04:42:24.541Z,992.83
2017-12-26T04:43:24.598Z,992.87
2017-12-26T04:45:17.712Z,992.81
2017-12-26T04:46:17.627Z,992.86
2017-12-26T04:48:10.645Z,992.77
2017-12-26T04:49:10.664Z,992.75
2017-12-26T04:51:03.758Z,992.76
2017-12-26T04:52:03.695Z,992.77
2017-12-26T04:53:56.691Z,992.66
2017-12-26T04:54:56.725Z,992.65
2017-12-26T04:56:49.923Z,992.57
2017-12-26T04:57:50.040Z,992.50
2017-12-26T04:59:43.107Z,992.48
2017-12-26T05:00:43.016Z,992.46
2017-12-26T05:02:37.424Z,992.40
2017-12-26T05:03:36.542Z,992.40
2017-12-26T05:05:29.135Z,992.33
2017-12-26T05:06:29.183Z,992.33
2017-12-26T05:08:22.385Z,992.27
2017-12-26T05:09:22.344Z,992.29
2017-12-26T05:11:15.523Z,992.25
2017-12-26T05:12:16.019Z,992.24
2017-12-26T05:14:08.447Z,992.24
2017-12-26T05:15:08.603Z,992.21
2017-12-26T05:17:01.381Z,992.10
2017-12-26T05:18:01.402Z,992.11
2017-12-26T05:19:54.291Z,991.99
2017-12-26T05:20:55.528Z,992.06
2017-12-26T05:22:51.685Z,992.11
2017-12-26T05:23:48.147Z,992.09
2017-12-26T05:25:47.513Z,992.14
2017-12-26T05:26:43.023Z,992.11
2017-12-26T05:28:43.260Z,992.07
2017-12-26T05:31:27.419Z,992.09
2017-12-26T05:32:27.290Z,992.00
2017-12-26T05:34:20.492Z,991.93
2017-12-26T05:35:20.330Z,992.04
2017-12-26T05:37:13.317Z,992.06
2017-12-26T05:38:13.372Z,992.04
2017-12-26T05:40:06.373Z,991.96
2017-12-26T05:41:06.406Z,991.95
2017-12-26T05:42:59.382Z,991.90
2017-12-26T05:43:59.440Z,991.85
2017-12-26T05:45:52.541Z,991.83
2017-12-26T05:46:52.470Z,991.95
2017-12-26T05:48:45.475Z,991.89
2017-12-26T05:49:45.512Z,991.89
2017-12-26T05:51:38.594Z,991.84
2017-12-26T05:52:38.543Z,991.76
2017-12-26T05:54:31.656Z,991.63
2017-12-26T05:55:31.583Z,991.63
2017-12-26T05:57:24.560Z,991.58
2017-12-26T05:58:24.616Z,991.52
2017-12-26T06:00:17.850Z,991.46
2017-12-26T06:01:17.660Z,991.50
2017-12-26T06:03:10.724Z,991.46
2017-12-26T06:04:10.682Z,991.55
2017-12-26T06:06:03.810Z,991.65
2017-12-26T06:07:03.731Z,991.68
2017-12-26T06:08:56.716Z,991.65
2017-12-26T06:09:56.750Z,991.66
2017-12-26T06:11:49.868Z,991.67
2017-12-26T06:12:49.784Z,991.55
2017-12-26T06:14:42.789Z,991.49
2017-12-26T06:15:42.826Z,991.46
2017-12-26T06:17:35.802Z,991.54
2017-12-26T06:18:35.858Z,991.51
2017-12-26T06:20:29.102Z,991.44
2017-12-26T06:21:29.063Z,991.52
2017-12-26T06:23:21.998Z,991.51
2017-12-26T06:24:21.929Z,991.56
2017-12-26T06:26:15.062Z,991.63
2017-12-26T06:27:14.962Z,991.60
2017-12-26T06:29:08.113Z,991.68
2017-12-26T06:30:08.001Z,991.68
2017-12-26T06:32:01.214Z,991.74
2017-12-26T06:33:01.049Z,991.77
2017-12-26T06:34:54.049Z,991.79
2017-12-26T06:35:54.219Z,991.78
2017-12-26T06:37:47.360Z,991.95
2017-12-26T06:38:47.129Z,991.93
2017-12-26T06:40:40.218Z,991.95
2017-12-26T06:41:40.150Z,991.93
2017-12-26T06:43:33.295Z,992.08
2017-12-26T06:44:33.186Z,991.98
2017-12-26T06:46:26.406Z,992.01
2017-12-26T06:47:26.228Z,992.01
2017-12-26T06:49:19.228Z,992.07
2017-12-26T06:50:19.273Z,992.09
2017-12-26T06:52:12.245Z,992.06
2017-12-26T06:53:12.312Z,992.11
2017-12-26T06:55:05.394Z,992.08
2017-12-26T06:56:05.336Z,992.11
2017-12-26T06:57:58.405Z,992.02
2017-12-26T06:58:58.420Z,992.13
2017-12-26T07:00:51.523Z,992.15
2017-12-26T07:01:51.513Z,992.14
2017-12-26T07:03:44.422Z,992.24
2017-12-26T07:04:44.471Z,992.23
2017-12-26T07:06:37.472Z,992.30
2017-12-26T07:07:37.507Z,992.24
2017-12-26T07:09:30.630Z,992.27
2017-12-26T07:10:30.564Z,992.29
2017-12-26T07:12:23.541Z,992.27
2017-12-26T07:13:23.574Z,992.30
2017-12-26T07:15:16.781Z,992.31
2017-12-26T07:16:16.612Z,992.26
2017-12-26T07:18:09.589Z,992.17
2017-12-26T07:19:09.783Z,992.17
2017-12-26T07:21:02.646Z,992.20
2017-12-26T07:22:02.683Z,992.18
2017-12-26T07:23:55.658Z,992.21
2017-12-26T07:24:55.716Z,992.27
2017-12-26T07:26:48.948Z,992.24
2017-12-26T07:27:48.747Z,992.27
2017-12-26T07:29:41.768Z,992.27
2017-12-26T07:30:41.782Z,992.33
2017-12-26T07:32:35.097Z,992.35
2017-12-26T07:33:34.943Z,992.35
2017-12-26T07:35:28.130Z,992.41
2017-12-26T07:36:27.977Z,992.46
2017-12-26T07:38:21.339Z,992.46
2017-12-26T07:39:20.976Z,992.46
2017-12-26T07:41:14.019Z,992.52
2017-12-26T07:42:14.011Z,992.49
2017-12-26T07:44:06.994Z,992.44
2017-12-26T07:45:07.049Z,992.53
2017-12-26T07:47:00.258Z,992.49
2017-12-26T07:48:00.084Z,992.51
2017-12-26T07:49:53.249Z,992.46
2017-12-26T07:50:53.118Z,992.55
2017-12-26T07:52:46.103Z,992.45
2017-12-26T07:53:46.160Z,992.49
2017-12-26T07:55:39.214Z,992.53
2017-12-26T07:56:39.250Z,992.54
2017-12-26T07:58:32.263Z,992.51
2017-12-26T07:59:32.283Z,992.54
2017-12-26T08:01:25.421Z,992.49
2017-12-26T08:02:25.331Z,992.46
2017-12-26T08:04:18.592Z,992.47
2017-12-26T08:05:18.364Z,992.54
2017-12-26T08:07:12.705Z,992.52
2017-12-26T08:08:11.417Z,992.59
2017-12-26T08:10:06.171Z,992.63
2017-12-26T08:11:05.281Z,992.66
2017-12-26T08:12:58.526Z,992.64
2017-12-26T08:13:58.314Z,992.66
2017-12-26T08:15:52.033Z,992.72
2017-12-26T08:16:54.172Z,992.81
2017-12-26T08:18:44.885Z,992.89
2017-12-26T08:19:44.919Z,992.80
2017-12-26T08:21:38.150Z,992.83
2017-12-26T08:22:37.990Z,992.85
2017-12-26T08:24:31.234Z,992.85
2017-12-26T08:25:32.727Z,992.90
2017-12-26T08:27:24.291Z,992.97
2017-12-26T08:28:24.070Z,992.99
2017-12-26T08:30:17.132Z,993.02
2017-12-26T08:31:17.836Z,993.05
2017-12-26T08:33:10.384Z,993.11
2017-12-26T08:34:10.607Z,993.12
2017-12-26T08:36:03.319Z,993.13
2017-12-26T08:37:03.275Z,993.15
2017-12-26T08:38:56.299Z,993.13
2017-12-26T08:39:56.319Z,993.14
2017-12-26T08:41:49.345Z,993.22
2017-12-26T08:42:49.344Z,993.17
2017-12-26T08:44:42.330Z,993.26
2017-12-26T08:45:42.388Z,993.22
2017-12-26T08:47:35.391Z,993.21
2017-12-26T08:48:35.425Z,993.20
2017-12-26T08:50:28.437Z,993.08
2017-12-26T08:51:28.463Z,993.16
2017-12-26T08:53:21.647Z,993.07
2017-12-26T08:54:21.496Z,993.00
2017-12-26T08:56:14.568Z,993.09
2017-12-26T08:57:14.543Z,993.03
2017-12-26T08:59:07.513Z,993.04
2017-12-26T09:00:07.563Z,993.04
2017-12-26T09:02:00.765Z,993.19
2017-12-26T09:03:00.667Z,993.23
2017-12-26T09:04:53.667Z,993.18
2017-12-26T09:05:53.633Z,993.17
2017-12-26T09:07:46.908Z,993.21
2017-12-26T09:08:46.694Z,993.20
2017-12-26T09:10:39.669Z,993.23
2017-12-26T09:11:39.702Z,993.24
2017-12-26T09:13:32.686Z,993.38
2017-12-26T09:14:32.740Z,993.29
2017-12-26T09:16:25.826Z,993.29
2017-12-26T09:17:25.787Z,993.35
2017-12-26T09:19:18.823Z,993.43
2017-12-26T09:20:18.850Z,993.40
2017-12-26T09:22:11.918Z,993.53
2017-12-26T09:23:11.864Z,993.52
2017-12-26T09:25:04.923Z,993.54
2017-12-26T09:26:04.945Z,993.48
2017-12-26T09:27:58.296Z,993.47
2017-12-26T09:28:57.997Z,993.49
2017-12-26T09:30:51.066Z,993.50
2017-12-26T09:31:51.048Z,993.54
2017-12-26T09:33:44.001Z,993.54
2017-12-26T09:34:44.044Z,993.49
2017-12-26T09:36:37.033Z,993.52
2017-12-26T09:37:37.063Z,993.51
2017-12-26T09:39:30.051Z,993.60
2017-12-26T09:40:30.098Z,993.65
2017-12-26T09:42:23.107Z,993.61
2017-12-26T09:43:23.130Z,993.60
2017-12-26T09:45:16.117Z,993.67
2017-12-26T09:46:16.164Z,993.66
2017-12-26T09:48:09.244Z,993.70
2017-12-26T09:49:09.199Z,993.70
2017-12-26T09:51:02.216Z,993.66
2017-12-26T09:52:02.251Z,993.65
2017-12-26T09:53:55.298Z,993.78
2017-12-26T09:54:55.310Z,993.77
2017-12-26T09:56:48.318Z,993.82
2017-12-26T09:57:48.400Z,993.76
2017-12-26T09:59:41.429Z,993.74
2017-12-26T10:00:41.419Z,993.76
2017-12-26T10:02:34.422Z,993.73
2017-12-26T10:03:34.422Z,993.67
2017-12-26T10:05:27.554Z,993.72
2017-12-26T10:06:27.543Z,993.61
2017-12-26T10:08:20.500Z,993.63
2017-12-26T10:09:20.505Z,993.72
2017-12-26T10:11:13.526Z,993.69
2017-12-26T10:12:13.542Z,993.70
2017-12-26T10:14:06.543Z,993.71
2017-12-26T10:15:06.580Z,993.71
2017-12-26T10:16:59.618Z,993.73
2017-12-26T10:17:59.610Z,993.76
2017-12-26T10:19:52.593Z,993.67
2017-12-26T10:20:52.657Z,993.61
2017-12-26T10:22:45.672Z,993.61
2017-12-26T10:23:45.680Z,993.60
2017-12-26T10:25:38.725Z,993.64
2017-12-26T10:26:38.716Z,993.62
2017-12-26T10:28:31.839Z,993.64
2017-12-26T10:29:31.755Z,993.62
2017-12-26T10:31:24.834Z,993.66
2017-12-26T10:32:24.795Z,993.67
2017-12-26T10:34:18.167Z,993.68
2017-12-26T10:35:17.861Z,993.69
2017-12-26T10:37:10.844Z,993.68
2017-12-26T10:38:10.882Z,993.85
2017-12-26T10:40:03.855Z,993.63
2017-12-26T10:41:03.919Z,993.64
2017-12-26T10:42:57.033Z,993.62
2017-12-26T10:43:56.949Z,993.67
2017-12-26T10:45:49.931Z,993.67
2017-12-26T10:46:49.988Z,993.65
2017-12-26T10:48:43.003Z,993.77
2017-12-26T10:49:43.022Z,993.67
2017-12-26T10:51:36.162Z,993.72
2017-12-26T10:52:36.058Z,993.71
2017-12-26T10:54:29.088Z,993.66
2017-12-26T10:55:29.097Z,993.66
2017-12-26T10:57:22.099Z,993.71
2017-12-26T10:58:22.138Z,993.69
2017-12-26T11:00:15.119Z,993.73
2017-12-26T11:01:15.181Z,993.76
2017-12-26T11:03:08.228Z,993.77
2017-12-26T11:04:08.208Z,993.76
2017-12-26T11:06:01.191Z,993.70
2017-12-26T11:07:01.243Z,993.74
2017-12-26T11:08:54.254Z,993.72
2017-12-26T11:09:54.278Z,993.75
2017-12-26T11:11:47.373Z,993.82
2017-12-26T11:12:47.315Z,993.92
2017-12-26T11:14:40.353Z,993.78
2017-12-26T11:15:40.350Z,993.77
2017-12-26T11:17:33.352Z,993.75
2017-12-26T11:18:33.385Z,993.80
2017-12-26T11:20:26.389Z,993.83
2017-12-26T11:21:26.419Z,993.82
2017-12-26T11:23:19.490Z,993.89
2017-12-26T11:24:19.455Z,993.90
2017-12-26T11:26:12.451Z,993.91
2017-12-26T11:27:12.492Z,993.79
2017-12-26T11:29:05.500Z,993.80
2017-12-26T11:30:05.553Z,993.92
2017-12-26T11:31:58.633Z,993.82
2017-12-26T11:32:58.566Z,993.80
2017-12-26T11:34:51.597Z,993.77
2017-12-26T11:35:51.602Z,993.84
2017-12-26T11:37:45.113Z,993.79
2017-12-26T11:38:45.144Z,993.76
2017-12-26T11:40:38.128Z,993.73
2017-12-26T11:41:38.197Z,993.81
2017-12-26T11:43:31.186Z,993.77
2017-12-26T11:44:31.216Z,993.82
2017-12-26T11:46:24.207Z,993.76
2017-12-26T11:47:24.251Z,993.80
2017-12-26T11:49:17.251Z,993.89
2017-12-26T11:50:17.288Z,993.93
2017-12-26T11:52:10.285Z,993.94
2017-12-26T11:53:10.325Z,993.91
2017-12-26T11:55:03.825Z,993.89
2017-12-26T11:56:03.866Z,993.92
2017-12-26T11:57:56.871Z,994.03
2017-12-26T11:58:57.012Z,993.97
2017-12-26T12:00:49.886Z,994.00
2017-12-26T12:01:49.940Z,993.91
2017-12-26T12:03:42.966Z,993.96
2017-12-26T12:04:42.976Z,993.89
2017-12-26T12:06:35.959Z,993.96
2017-12-26T12:07:36.014Z,993.99
2017-12-26T12:09:29.050Z,994.00
2017-12-26T12:10:29.050Z,994.00
2017-12-26T12:12:22.056Z,994.01
2017-12-26T12:13:22.093Z,994.07
2017-12-26T12:15:15.076Z,994.06
2017-12-26T12:16:15.136Z,993.99
2017-12-26T12:18:08.158Z,994.00
2017-12-26T12:19:08.169Z,993.90
2017-12-26T12:21:01.154Z,993.95
2017-12-26T12:22:01.205Z,993.92
2017-12-26T12:23:54.205Z,993.95
2017-12-26T12:24:54.242Z,994.00
2017-12-26T12:26:47.225Z,993.93
2017-12-26T12:27:47.331Z,993.96
2017-12-26T12:29:40.333Z,994.03
2017-12-26T12:30:40.314Z,994.04
2017-12-26T12:32:33.317Z,993.98
2017-12-26T12:33:33.352Z,994.04
2017-12-26T12:35:27.364Z,993.92
2017-12-26T12:36:27.870Z,993.92
2017-12-26T12:38:19.932Z,993.88
2017-12-26T12:39:19.968Z,994.02
2017-12-26T12:41:13.459Z,994.03
2017-12-26T12:42:13.511Z,993.82
2017-12-26T12:44:06.513Z,993.85
2017-12-26T12:45:06.553Z,993.82
2017-12-26T12:47:00.048Z,993.82
2017-12-26T12:48:00.096Z,993.83
2017-12-26T12:49:53.095Z,993.74
2017-12-26T12:50:53.138Z,993.76
2017-12-26T12:52:46.151Z,993.76
2017-12-26T12:53:46.167Z,993.79
2017-12-26T12:55:39.149Z,993.74
2017-12-26T12:56:39.203Z,993.80
2017-12-26T12:58:32.219Z,993.70
2017-12-26T12:59:32.238Z,993.72
2017-12-26T13:01:25.222Z,993.75
2017-12-26T13:02:25.275Z,993.75
2017-12-26T13:04:18.273Z,993.73
2017-12-26T13:05:18.308Z,993.77
2017-12-26T13:07:11.295Z,993.73
2017-12-26T13:08:11.344Z,993.72
2017-12-26T13:10:04.351Z,993.66
2017-12-26T13:11:04.383Z,993.68
2017-12-26T13:12:57.378Z,993.75
2017-12-26T13:13:57.413Z,993.75
2017-12-26T13:15:50.398Z,993.71
2017-12-26T13:16:50.458Z,993.69
2017-12-26T13:18:43.458Z,993.68
2017-12-26T13:19:43.493Z,993.75
2017-12-26T13:21:36.473Z,993.75
2017-12-26T13:22:36.530Z,993.70
2017-12-26T13:24:29.537Z,993.74
2017-12-26T13:25:29.573Z,993.69
2017-12-26T13:27:24.059Z,993.66
2017-12-26T13:28:24.113Z,993.70
2017-12-26T13:30:17.225Z,993.67
2017-12-26T13:31:17.152Z,993.74
2017-12-26T13:33:10.258Z,993.66
2017-12-26T13:34:10.222Z,993.65
2017-12-26T13:36:03.238Z,993.63
2017-12-26T13:37:03.225Z,993.57
2017-12-26T13:38:56.224Z,993.55
2017-12-26T13:39:56.286Z,993.58
2017-12-26T13:41:49.262Z,993.63
2017-12-26T13:42:49.294Z,993.66
2017-12-26T13:44:42.296Z,993.63
2017-12-26T13:45:42.333Z,993.61
2017-12-26T13:47:35.393Z,993.67
2017-12-26T13:48:35.402Z,993.64
2017-12-26T13:50:28.393Z,993.54
2017-12-26T13:51:28.417Z,993.60
2017-12-26T13:53:21.420Z,993.60
2017-12-26T13:54:21.465Z,993.59
2017-12-26T13:56:14.553Z,993.52
2017-12-26T13:57:14.497Z,993.59
2017-12-26T13:59:07.568Z,993.58
2017-12-26T14:00:07.525Z,993.59
2017-12-26T14:02:00.501Z,993.64
2017-12-26T14:03:00.557Z,993.61
2017-12-26T14:04:53.567Z,993.61
2017-12-26T14:05:53.602Z,993.73
2017-12-26T14:07:46.581Z,993.68
2017-12-26T14:08:46.638Z,993.66
2017-12-26T14:10:39.635Z,993.73
2017-12-26T14:11:39.671Z,993.68
2017-12-26T14:13:32.669Z,993.71
2017-12-26T14:14:32.708Z,993.69
2017-12-26T14:16:25.683Z,993.74
2017-12-26T14:17:25.739Z,993.71
2017-12-26T14:19:18.739Z,993.73
2017-12-26T14:20:18.778Z,993.70
2017-12-26T14:22:11.757Z,993.72
2017-12-26T14:23:11.818Z,993.80
2017-12-26T14:25:04.816Z,993.81
2017-12-26T14:26:04.866Z,993.80
2017-12-26T14:27:57.830Z,993.79
2017-12-26T14:28:57.887Z,993.75
2017-12-26T14:30:50.886Z,993.79
2017-12-26T14:31:50.924Z,993.83
2017-12-26T14:33:43.936Z,993.86
2017-12-26T14:34:43.963Z,993.87
2017-12-26T14:36:36.957Z,993.85
2017-12-26T14:37:37.001Z,993.91
2017-12-26T14:39:30.013Z,993.91
2017-12-26T14:40:30.041Z,993.89
2017-12-26T14:42:23.019Z,993.90
2017-12-26T14:43:23.073Z,993.93
2017-12-26T14:45:16.071Z,993.94
2017-12-26T14:46:16.118Z,993.96
2017-12-26T14:48:09.084Z,993.92
2017-12-26T14:49:09.140Z,993.90
2017-12-26T14:51:02.206Z,993.95
2017-12-26T14:52:02.176Z,993.98
2017-12-26T14:53:55.182Z,993.98
2017-12-26T14:54:55.243Z,993.96
2017-12-26T14:56:48.296Z,994.04
2017-12-26T14:57:48.257Z,994.07
2017-12-26T14:59:41.479Z,994.06
2017-12-26T15:00:41.288Z,994.08
2017-12-26T15:02:34.342Z,994.11
2017-12-26T15:03:34.340Z,994.17
2017-12-26T15:05:27.353Z,994.18
2017-12-26T15:06:27.376Z,994.13
2017-12-26T15:08:20.374Z,994.18
2017-12-26T15:09:20.398Z,994.17
2017-12-26T15:11:13.397Z,994.09
2017-12-26T15:12:13.445Z,994.06
2017-12-26T15:14:06.438Z,993.98
2017-12-26T15:15:06.473Z,994.08
2017-12-26T15:16:59.668Z,994.09
2017-12-26T15:17:59.516Z,994.05
2017-12-26T15:19:52.862Z,994.01
2017-12-26T15:20:52.556Z,994.06
2017-12-26T15:22:45.711Z,994.02
2017-12-26T15:23:45.596Z,993.99
2017-12-26T15:25:38.831Z,994.07
2017-12-26T15:26:38.841Z,994.05
2017-12-26T15:28:31.880Z,994.05
2017-12-26T15:29:31.665Z,994.05
2017-12-26T15:31:24.683Z,994.07
2017-12-26T15:32:24.720Z,994.07
2017-12-26T15:34:17.721Z,994.10
2017-12-26T15:35:17.766Z,994.10
2017-12-26T15:37:11.323Z,994.05
2017-12-26T15:38:11.300Z,994.02
2017-12-26T15:40:04.598Z,994.07
2017-12-26T15:41:04.339Z,994.07
2017-12-26T15:42:57.649Z,994.10
2017-12-26T15:43:57.716Z,994.08
2017-12-26T15:45:50.732Z,994.01
2017-12-26T15:46:50.424Z,994.05
2017-12-26T15:48:43.423Z,994.04
2017-12-26T15:49:43.448Z,994.04
2017-12-26T15:51:36.457Z,994.01
2017-12-26T15:52:36.482Z,994.01
2017-12-26T15:54:29.485Z,993.95
2017-12-26T15:55:29.517Z,993.92
2017-12-26T15:57:22.502Z,993.92
2017-12-26T15:58:22.552Z,993.90
2017-12-26T16:00:15.558Z,993.82
2017-12-26T16:01:15.791Z,993.84
2017-12-26T16:03:08.577Z,993.85
2017-12-26T16:04:08.663Z,993.86
2017-12-26T16:06:02.133Z,993.83
2017-12-26T16:07:01.891Z,993.76
2017-12-26T16:08:55.634Z,993.70
2017-12-26T16:09:55.021Z,993.67
2017-12-26T16:11:48.136Z,993.68
2017-12-26T16:12:47.787Z,993.67
2017-12-26T16:14:41.008Z,993.69
2017-12-26T16:15:40.871Z,993.75
2017-12-26T16:17:33.973Z,993.67
2017-12-26T16:18:33.869Z,993.66
2017-12-26T16:20:26.860Z,993.64
2017-12-26T16:21:26.871Z,993.68
2017-12-26T16:23:19.913Z,993.67
2017-12-26T16:24:19.907Z,993.71
2017-12-26T16:26:12.917Z,993.71
2017-12-26T16:27:12.947Z,993.79
2017-12-26T16:29:05.916Z,993.85
2017-12-26T16:30:05.974Z,993.89
2017-12-26T16:31:58.981Z,993.83
2017-12-26T16:32:59.006Z,993.82
2017-12-26T16:34:52.017Z,993.82
2017-12-26T16:35:52.042Z,993.79
2017-12-26T16:37:45.080Z,993.80
2017-12-26T16:38:45.077Z,993.84
2017-12-26T16:40:38.099Z,993.74
2017-12-26T16:41:38.130Z,993.76
2017-12-26T16:43:31.112Z,993.77
2017-12-26T16:44:31.150Z,993.82
2017-12-26T16:46:24.154Z,993.77
2017-12-26T16:47:24.188Z,993.81
2017-12-26T16:49:17.226Z,993.85
2017-12-26T16:50:17.228Z,993.87
2017-12-26T16:52:10.442Z,993.89
2017-12-26T16:53:10.253Z,993.82
2017-12-26T16:55:03.426Z,993.81
2017-12-26T16:56:03.292Z,993.85
2017-12-26T16:57:56.357Z,993.79
2017-12-26T16:58:56.420Z,993.83
2017-12-26T17:00:49.352Z,993.80
2017-12-26T17:01:49.372Z,993.72
2017-12-26T17:03:42.371Z,993.81
2017-12-26T17:04:42.417Z,993.87
2017-12-26T17:06:35.411Z,993.86
2017-12-26T17:07:35.460Z,993.81
2017-12-26T17:09:28.597Z,993.85
2017-12-26T17:10:28.480Z,993.86
2017-12-26T17:12:21.479Z,993.90
2017-12-26T17:13:21.526Z,993.79
2017-12-26T17:15:14.666Z,993.87
2017-12-26T17:16:14.561Z,993.86
2017-12-26T17:18:07.540Z,993.84
2017-12-26T17:19:07.596Z,993.86
2017-12-26T17:21:00.803Z,993.84
2017-12-26T17:22:00.631Z,993.81
2017-12-26T17:23:53.616Z,993.82
2017-12-26T17:24:53.666Z,993.86
2017-12-26T17:26:46.750Z,993.83
2017-12-26T17:27:46.702Z,993.87
2017-12-26T17:29:39.692Z,993.87
2017-12-26T17:30:39.741Z,993.77
2017-12-26T17:32:32.738Z,993.78
2017-12-26T17:33:32.774Z,993.78
2017-12-26T17:35:25.772Z,993.82
2017-12-26T17:36:25.807Z,993.80
2017-12-26T17:38:18.925Z,993.75
2017-12-26T17:39:18.842Z,993.76
2017-12-26T17:41:11.846Z,993.78
2017-12-26T17:42:11.886Z,993.72
2017-12-26T17:44:04.936Z,993.77
2017-12-26T17:45:04.923Z,993.76
2017-12-26T17:46:57.922Z,993.72
2017-12-26T17:47:57.970Z,993.77
2017-12-26T17:49:51.010Z,993.74
2017-12-26T17:50:51.004Z,993.73
2017-12-26T17:52:44.114Z,993.73
2017-12-26T17:53:44.027Z,993.72
2017-12-26T17:55:37.147Z,993.74
2017-12-26T17:56:37.061Z,993.75
2017-12-26T17:58:30.558Z,993.72
2017-12-26T17:59:30.601Z,993.76
2017-12-26T18:01:23.725Z,993.68